Terminal Aerodrome Forecast
Issued by NWS Mt. Holly, NJ

Home | Current Version | Previous Version | Text Only | Print | Product List | Glossary On
Versions: 1 2 3 4 5 6 7 8 9 10 11 12 13 14 15 16 17 18 19
881
FTUS41 KPHI 211730
TAFRDG
TAF
KRDG 211730Z 2118/2218 23003KT 3SM BR OVC004
     FM212300 VRB03KT 2SM BR OVC003
     FM220400 00000KT 1/2SM -DZ FG OVC002
     FM221500 04003KT 2SM BR OVC004=

USA.gov is the U.S. government's official web portal to all federal, state and local government web resources and services.